createdAt,value
2022-11-20T00:01:28.808Z,12.27
2022-11-20T00:03:57.179Z,16.77
2022-11-20T00:06:24.750Z,17.80
2022-11-20T00:08:52.095Z,17.15
2022-11-20T00:11:21.609Z,15.57
2022-11-20T00:13:50.893Z,15.60
2022-11-20T00:16:20.245Z,13.60
2022-11-20T00:18:48.208Z,10.80
2022-11-20T00:21:17.017Z,20.17
2022-11-20T00:23:44.119Z,14.85
2022-11-20T00:26:13.521Z,11.18
2022-11-20T00:28:40.542Z,20.92
2022-11-20T00:31:12.822Z,14.55
2022-11-20T00:33:42.008Z,17.38
2022-11-20T00:36:30.702Z,14.73
2022-11-20T00:38:59.017Z,11.43
2022-11-20T00:41:29.564Z,14.50
2022-11-20T00:43:57.134Z,11.50
2022-11-20T00:46:26.022Z,12.88
2022-11-20T00:48:54.226Z,15.05
2022-11-20T00:51:23.429Z,11.32
2022-11-20T00:53:50.513Z,10.02
2022-11-20T00:56:19.131Z,12.70
2022-11-20T00:58:48.655Z,9.95
2022-11-20T01:01:17.163Z,11.98
2022-11-20T01:03:46.751Z,22.63
2022-11-20T01:06:21.989Z,9.95
2022-11-20T01:08:49.914Z,12.18
2022-11-20T01:11:19.712Z,12.55
2022-11-20T01:13:47.883Z,10.52
2022-11-20T01:16:19.141Z,10.80
2022-11-20T01:18:48.486Z,13.63
2022-11-20T01:21:18.756Z,15.07
2022-11-20T01:23:46.267Z,10.75
2022-11-20T01:26:16.458Z,12.45
2022-11-20T01:28:43.706Z,10.55
2022-11-20T01:31:16.708Z,9.27
2022-11-20T01:33:44.373Z,12.15
2022-11-20T01:36:11.920Z,13.10
2022-11-20T01:38:41.899Z,18.63
2022-11-20T01:41:09.733Z,13.50
2022-11-20T01:43:36.905Z,13.15
2022-11-20T01:46:17.168Z,13.27
2022-11-20T01:48:55.260Z,11.80
2022-11-20T01:51:24.260Z,9.15
2022-11-20T01:53:51.897Z,10.88
2022-11-20T01:56:19.167Z,7.22
2022-11-20T01:58:51.623Z,8.40
2022-11-20T02:01:18.644Z,14.98
2022-11-20T02:03:45.827Z,11.77
2022-11-20T02:07:09.050Z,6.68
2022-11-20T02:09:41.212Z,10.95
2022-11-20T02:12:28.020Z,13.23
2022-11-20T02:14:54.893Z,13.57
2022-11-20T02:17:21.891Z,15.30
2022-11-20T02:19:48.680Z,15.65
2022-11-20T02:22:29.598Z,14.93
2022-11-20T02:24:57.130Z,11.70
2022-11-20T02:27:24.157Z,8.98
2022-11-20T02:30:01.679Z,15.30
2022-11-20T02:32:30.643Z,10.43
2022-11-20T02:34:57.819Z,14.43
2022-11-20T02:37:29.412Z,10.98
2022-11-20T02:39:56.430Z,15.40
2022-11-20T02:42:23.186Z,9.50
2022-11-20T02:44:50.046Z,12.10
2022-11-20T02:47:16.899Z,10.68
2022-11-20T02:49:43.780Z,7.30
2022-11-20T02:52:10.628Z,14.77
2022-11-20T02:54:37.370Z,7.78
2022-11-20T02:57:04.140Z,11.23
2022-11-20T02:59:30.990Z,17.23
2022-11-20T03:01:57.833Z,11.15
2022-11-20T03:04:24.734Z,14.32
2022-11-20T03:06:51.580Z,15.73
2022-11-20T03:09:18.539Z,11.75
2022-11-20T03:11:45.443Z,16.77
2022-11-20T03:14:12.374Z,16.02
2022-11-20T03:16:39.212Z,10.88
2022-11-20T03:19:06.095Z,10.00
2022-11-20T03:21:34.608Z,17.75
2022-11-20T03:24:02.579Z,14.15
2022-11-20T03:26:29.628Z,12.65
2022-11-20T03:29:00.980Z,16.13
2022-11-20T03:31:33.598Z,9.20
2022-11-20T03:34:01.490Z,7.85
2022-11-20T03:36:28.854Z,10.85
2022-11-20T03:38:56.793Z,11.10
2022-11-20T03:41:43.176Z,2.90
2022-11-20T03:44:12.130Z,6.05
2022-11-20T03:46:39.403Z,7.50
2022-11-20T03:49:06.338Z,4.43
2022-11-20T03:51:35.122Z,5.43
2022-11-20T03:54:07.293Z,7.78
2022-11-20T03:56:40.280Z,3.97
2022-11-20T03:59:07.561Z,5.78
2022-11-20T04:01:36.917Z,3.30
2022-11-20T04:04:04.162Z,4.05
2022-11-20T04:06:35.637Z,10.02
2022-11-20T04:09:02.572Z,6.75
2022-11-20T04:11:31.413Z,5.65
2022-11-20T04:14:03.420Z,5.80
2022-11-20T04:16:31.540Z,6.00
2022-11-20T04:19:03.434Z,4.75
2022-11-20T04:21:31.426Z,6.72
2022-11-20T04:24:03.191Z,8.38
2022-11-20T04:26:31.461Z,7.10
2022-11-20T04:28:59.128Z,4.28
2022-11-20T04:31:30.884Z,5.32
2022-11-20T04:34:01.412Z,7.00
2022-11-20T04:36:30.753Z,3.10
2022-11-20T04:39:07.636Z,5.55
2022-11-20T04:41:36.960Z,7.10
2022-11-20T04:44:05.192Z,4.63
2022-11-20T04:46:33.855Z,4.55
2022-11-20T04:49:00.754Z,5.90
2022-11-20T04:51:28.044Z,9.25
2022-11-20T04:53:54.952Z,5.13
2022-11-20T04:56:21.756Z,4.35
2022-11-20T04:58:48.483Z,5.47
2022-11-20T05:01:20.773Z,7.63
2022-11-20T05:03:48.153Z,6.57
2022-11-20T05:06:17.110Z,6.00
2022-11-20T05:08:44.109Z,4.65
2022-11-20T05:11:13.427Z,7.75
2022-11-20T05:13:41.112Z,7.88
2022-11-20T05:16:10.436Z,5.45
2022-11-20T05:18:38.600Z,7.57
2022-11-20T05:21:06.069Z,2.67
2022-11-20T05:23:33.578Z,4.30
2022-11-20T05:26:00.740Z,3.00
2022-11-20T05:28:29.236Z,1.38
2022-11-20T05:30:56.049Z,5.45
2022-11-20T05:33:22.910Z,3.40
2022-11-20T05:35:50.426Z,3.25
2022-11-20T05:38:17.230Z,3.58
2022-11-20T05:40:44.045Z,6.57
2022-11-20T05:43:10.889Z,1.58
2022-11-20T05:45:37.911Z,5.35
2022-11-20T05:48:05.273Z,3.97
2022-11-20T05:50:32.310Z,4.68
2022-11-20T05:53:00.662Z,2.40
2022-11-20T05:55:28.089Z,4.68
2022-11-20T05:57:56.037Z,4.85
2022-11-20T06:00:23.981Z,4.30
2022-11-20T06:02:50.914Z,4.10
2022-11-20T06:05:17.712Z,3.80
2022-11-20T06:07:44.532Z,4.85
2022-11-20T06:10:11.754Z,4.82
2022-11-20T06:12:38.646Z,4.65
2022-11-20T06:15:06.585Z,4.40
2022-11-20T06:17:33.403Z,8.13
2022-11-20T06:20:00.143Z,10.38
2022-11-20T06:22:26.952Z,6.65
2022-11-20T06:24:53.729Z,7.45
2022-11-20T06:27:20.518Z,3.85
2022-11-20T06:29:47.438Z,5.18
2022-11-20T06:32:14.808Z,5.93
2022-11-20T06:34:41.544Z,7.35
2022-11-20T06:37:08.363Z,5.43
2022-11-20T06:39:35.101Z,2.83
2022-11-20T06:42:01.875Z,4.28
2022-11-20T06:44:28.640Z,10.85
2022-11-20T06:46:55.450Z,4.38
2022-11-20T06:49:22.389Z,6.05
2022-11-20T06:51:49.453Z,8.35
2022-11-20T06:54:16.225Z,4.13
2022-11-20T06:56:43.055Z,6.32
2022-11-20T06:59:09.880Z,6.85
2022-11-20T07:01:36.828Z,4.97
2022-11-20T07:04:04.246Z,5.38
2022-11-20T07:06:31.436Z,4.47
2022-11-20T07:08:58.477Z,6.20
2022-11-20T07:11:25.731Z,4.05
2022-11-20T07:13:52.563Z,3.88
2022-11-20T07:16:19.406Z,3.13
2022-11-20T07:18:50.559Z,5.35
2022-11-20T07:21:18.080Z,4.40
2022-11-20T07:23:44.860Z,4.95
2022-11-20T07:26:12.415Z,3.65
2022-11-20T07:28:39.567Z,4.97
2022-11-20T07:31:07.871Z,2.22
2022-11-20T07:33:34.753Z,3.88
2022-11-20T07:36:01.928Z,4.72
2022-11-20T07:38:28.858Z,6.65
2022-11-20T07:40:57.145Z,4.20
2022-11-20T07:43:24.441Z,2.67
2022-11-20T07:45:51.488Z,2.08
2022-11-20T07:48:18.205Z,3.50
2022-11-20T07:50:45.103Z,6.03
2022-11-20T07:53:13.437Z,3.05
2022-11-20T07:55:40.401Z,5.88
2022-11-20T07:58:07.207Z,6.15
2022-11-20T08:00:34.036Z,4.53
2022-11-20T08:03:04.704Z,6.85
2022-11-20T08:05:31.820Z,4.95
2022-11-20T08:07:58.687Z,4.60
2022-11-20T08:10:25.932Z,4.32
2022-11-20T08:13:11.979Z,6.90
2022-11-20T08:15:40.531Z,4.43
2022-11-20T08:21:04.422Z,2.78
2022-11-20T08:23:31.367Z,6.50
2022-11-20T08:25:58.461Z,3.13
2022-11-20T08:28:25.255Z,4.70
2022-11-20T08:30:52.083Z,4.30
2022-11-20T08:33:19.432Z,4.10
2022-11-20T08:35:47.101Z,11.07
2022-11-20T08:38:13.984Z,6.22
2022-11-20T08:40:40.675Z,8.73
2022-11-20T08:43:07.401Z,7.07
2022-11-20T08:45:35.424Z,2.50
2022-11-20T08:48:03.875Z,4.45
2022-11-20T08:50:33.348Z,6.50
2022-11-20T08:53:05.620Z,5.72
2022-11-20T08:55:32.558Z,5.50
2022-11-20T08:57:59.330Z,6.97
2022-11-20T09:00:26.077Z,5.63
2022-11-20T09:02:53.395Z,4.45
2022-11-20T09:05:20.346Z,5.38
2022-11-20T09:07:47.261Z,6.20
2022-11-20T09:13:01.036Z,5.47
2022-11-20T09:15:27.785Z,5.78
2022-11-20T09:18:02.386Z,6.43
2022-11-20T09:20:30.798Z,4.45
2022-11-20T09:22:58.622Z,3.88
2022-11-20T09:25:27.559Z,7.45
2022-11-20T09:27:57.566Z,5.88
2022-11-20T09:30:24.410Z,4.20
2022-11-20T09:32:51.157Z,15.65
2022-11-20T09:35:18.916Z,51.70
2022-11-20T09:37:46.125Z,28.85
2022-11-20T09:40:26.186Z,21.48
2022-11-20T09:43:14.925Z,15.00
2022-11-20T09:46:05.931Z,24.52
2022-11-20T09:48:47.857Z,12.80
2022-11-20T09:51:26.467Z,7.50
2022-11-20T09:54:19.998Z,7.30
2022-11-20T09:56:55.521Z,6.15
2022-11-20T09:59:45.561Z,5.28
2022-11-20T10:02:25.226Z,5.93
2022-11-20T10:05:19.872Z,6.20
2022-11-20T10:07:57.714Z,5.38
2022-11-20T10:10:52.585Z,3.35
2022-11-20T10:13:41.399Z,4.15
2022-11-20T10:16:39.483Z,8.35
2022-11-20T10:19:33.268Z,7.18
2022-11-20T10:22:26.554Z,16.63
2022-11-20T10:24:58.793Z,19.98
2022-11-20T10:27:45.363Z,15.32
2022-11-20T10:30:14.016Z,9.60
2022-11-20T10:32:43.902Z,6.50
2022-11-20T10:35:29.274Z,4.72
2022-11-20T10:38:10.707Z,27.52
2022-11-20T10:40:50.462Z,60.70
2022-11-20T10:43:33.682Z,26.48
2022-11-20T10:46:08.261Z,11.63
2022-11-20T10:48:37.659Z,10.98
2022-11-20T10:51:34.039Z,9.18
2022-11-20T10:54:07.470Z,8.20
2022-11-20T10:56:34.507Z,6.50
2022-11-20T10:59:25.990Z,4.03
2022-11-20T11:01:53.688Z,2.78
2022-11-20T11:04:47.928Z,2.72
2022-11-20T11:07:17.885Z,2.45
2022-11-20T11:09:49.297Z,3.83
2022-11-20T11:12:17.063Z,1.75
2022-11-20T11:14:52.041Z,2.60
2022-11-20T11:17:28.414Z,3.17
2022-11-20T11:20:05.700Z,3.05
2022-11-20T11:22:45.854Z,4.20
2022-11-20T11:25:23.979Z,2.45
2022-11-20T11:27:51.676Z,4.32
2022-11-20T11:30:20.906Z,2.13
2022-11-20T11:32:47.757Z,2.97
2022-11-20T11:35:28.679Z,1.35
2022-11-20T11:38:04.801Z,1.88
2022-11-20T11:40:33.591Z,4.13
2022-11-20T11:43:04.282Z,1.95
2022-11-20T11:45:31.364Z,3.58
2022-11-20T11:47:59.690Z,1.95
2022-11-20T11:50:28.708Z,4.90
2022-11-20T11:53:16.121Z,3.13
2022-11-20T11:56:00.164Z,3.33
2022-11-20T11:58:49.514Z,4.43
2022-11-20T12:01:19.320Z,2.67
2022-11-20T12:04:12.602Z,3.45
2022-11-20T12:06:40.571Z,0.93
2022-11-20T12:09:11.444Z,2.78
2022-11-20T12:11:59.809Z,3.28
2022-11-20T12:14:32.542Z,5.75
2022-11-20T12:16:59.465Z,2.80
2022-11-20T12:19:29.516Z,3.15
2022-11-20T12:22:32.760Z,2.20
2022-11-20T12:25:13.114Z,1.55
2022-11-20T12:28:00.115Z,1.80
2022-11-20T12:30:29.277Z,2.50
2022-11-20T12:33:08.042Z,2.40
2022-11-20T12:35:56.397Z,1.92
2022-11-20T12:38:44.591Z,2.30
2022-11-20T12:41:14.025Z,2.38
2022-11-20T12:44:11.682Z,2.08
2022-11-20T12:46:49.221Z,2.45
2022-11-20T12:49:28.332Z,3.05
2022-11-20T12:52:35.031Z,1.35
2022-11-20T12:55:26.014Z,2.20
2022-11-20T12:58:25.183Z,1.55
2022-11-20T13:01:40.837Z,1.27
2022-11-20T13:04:28.562Z,1.85
2022-11-20T13:06:56.095Z,2.20
2022-11-20T13:09:24.058Z,1.65
2022-11-20T13:12:14.981Z,2.75
2022-11-20T13:14:45.921Z,2.33
2022-11-20T13:17:18.214Z,1.05
2022-11-20T13:19:55.093Z,2.65
2022-11-20T13:22:29.286Z,1.00
2022-11-20T13:24:56.431Z,3.88
2022-11-20T13:27:24.309Z,2.05
2022-11-20T13:30:18.509Z,2.30
2022-11-20T13:32:56.191Z,1.45
2022-11-20T13:35:42.888Z,1.83
2022-11-20T13:38:11.197Z,1.85
2022-11-20T13:40:53.816Z,4.63
2022-11-20T13:43:35.287Z,3.80
2022-11-20T13:46:07.473Z,4.18
2022-11-20T13:48:45.732Z,31.42
2022-11-20T13:51:24.582Z,9.43
2022-11-20T13:53:57.186Z,7.40
2022-11-20T13:56:48.982Z,6.90
2022-11-20T13:59:34.323Z,10.95
2022-11-20T14:02:01.749Z,4.38
2022-11-20T14:04:34.625Z,4.35
2022-11-20T14:07:02.087Z,4.20
2022-11-20T14:09:31.158Z,2.83
2022-11-20T14:11:58.584Z,3.13
2022-11-20T14:14:33.393Z,2.30
2022-11-20T14:17:18.654Z,3.13
2022-11-20T14:19:46.684Z,2.58
2022-11-20T14:22:22.842Z,3.38
2022-11-20T14:25:01.267Z,3.35
2022-11-20T14:27:28.204Z,5.00
2022-11-20T14:29:55.897Z,2.22
2022-11-20T14:32:26.163Z,2.55
2022-11-20T14:34:52.959Z,2.25
2022-11-20T14:37:23.091Z,3.28
2022-11-20T14:39:53.109Z,2.15
2022-11-20T14:42:26.597Z,3.05
2022-11-20T14:44:57.915Z,2.85
2022-11-20T14:47:27.165Z,6.15
2022-11-20T14:49:54.981Z,2.63
2022-11-20T14:52:23.965Z,1.92
2022-11-20T14:55:00.727Z,1.88
2022-11-20T14:57:29.994Z,3.53
2022-11-20T15:00:06.360Z,4.85
2022-11-20T15:02:33.428Z,3.08
2022-11-20T15:05:04.320Z,3.45
2022-11-20T15:10:05.799Z,3.05
2022-11-20T15:12:34.187Z,1.45
2022-11-20T15:15:02.266Z,1.65
2022-11-20T15:17:29.714Z,3.45
2022-11-20T15:19:56.831Z,3.03
2022-11-20T15:22:23.716Z,4.28
2022-11-20T15:24:50.532Z,2.85
2022-11-20T15:27:17.402Z,2.67
2022-11-20T15:29:44.216Z,3.17
2022-11-20T15:32:47.221Z,2.78
2022-11-20T15:35:15.351Z,3.60
2022-11-20T15:37:42.860Z,2.42
2022-11-20T15:40:10.463Z,3.15
2022-11-20T15:42:37.679Z,7.35
2022-11-20T15:45:04.861Z,8.20
2022-11-20T15:47:34.913Z,7.80
2022-11-20T15:50:02.063Z,9.17
2022-11-20T15:52:36.327Z,3.72
2022-11-20T15:55:11.981Z,3.92
2022-11-20T15:57:38.948Z,5.00
2022-11-20T16:00:06.734Z,4.78
2022-11-20T16:02:37.613Z,8.75
2022-11-20T16:05:05.496Z,6.55
2022-11-20T16:07:32.796Z,6.97
2022-11-20T16:09:59.867Z,10.27
2022-11-20T16:12:45.432Z,4.00
2022-11-20T16:15:30.928Z,5.00
2022-11-20T16:17:57.961Z,4.97
2022-11-20T16:20:24.882Z,6.93
2022-11-20T16:22:51.772Z,6.63
2022-11-20T16:25:18.505Z,7.95
2022-11-20T16:27:45.458Z,6.60
2022-11-20T16:30:12.525Z,8.18
2022-11-20T16:32:39.836Z,5.07
2022-11-20T16:35:08.962Z,7.07
2022-11-20T16:37:36.027Z,8.82
2022-11-20T16:40:04.410Z,6.47
2022-11-20T16:42:34.804Z,7.40
2022-11-20T16:45:02.690Z,5.57
2022-11-20T16:47:29.717Z,11.15
2022-11-20T16:49:56.644Z,11.95
2022-11-20T16:52:23.621Z,16.48
2022-11-20T16:54:50.638Z,14.82
2022-11-20T16:57:17.739Z,11.40
2022-11-20T16:59:44.746Z,13.90
2022-11-20T17:02:12.617Z,21.65
2022-11-20T17:04:39.863Z,14.52
2022-11-20T17:07:08.224Z,29.90
2022-11-20T17:09:35.133Z,49.97
2022-11-20T17:12:02.041Z,55.70
2022-11-20T17:14:28.759Z,38.67
2022-11-20T17:16:56.121Z,42.15
2022-11-20T17:19:22.945Z,45.53
2022-11-20T17:21:49.820Z,45.90
2022-11-20T17:24:16.606Z,36.28
2022-11-20T17:26:44.146Z,24.17
2022-11-20T17:29:15.979Z,25.77
2022-11-20T17:31:43.279Z,24.35
2022-11-20T17:34:14.377Z,28.73
2022-11-20T17:36:46.050Z,29.80
2022-11-20T17:39:15.256Z,32.83
2022-11-20T17:41:42.251Z,30.45
2022-11-20T17:44:10.097Z,27.77
2022-11-20T17:46:36.894Z,32.55
2022-11-20T17:49:05.476Z,38.13
2022-11-20T17:51:35.144Z,42.03
2022-11-20T17:54:04.501Z,45.38
2022-11-20T17:56:51.434Z,40.63
2022-11-20T17:59:19.043Z,39.38
2022-11-20T18:01:45.948Z,24.00
2022-11-20T18:04:13.312Z,11.15
2022-11-20T18:06:40.274Z,27.90
2022-11-20T18:09:07.578Z,21.45
2022-11-20T18:11:36.873Z,31.67
2022-11-20T18:14:25.351Z,27.05
2022-11-20T18:16:57.447Z,21.92
2022-11-20T18:19:31.436Z,20.60
2022-11-20T18:22:01.635Z,14.50
2022-11-20T18:24:28.770Z,17.60
2022-11-20T18:26:55.937Z,84.40
2022-11-20T18:29:22.957Z,73.70
2022-11-20T18:31:50.151Z,81.20
2022-11-20T18:34:17.465Z,65.10
2022-11-20T18:36:45.425Z,36.40
2022-11-20T18:39:13.759Z,26.50
2022-11-20T18:41:59.669Z,28.10
2022-11-20T18:44:47.721Z,29.83
2022-11-20T18:47:18.230Z,25.90
2022-11-20T18:49:50.871Z,28.95
2022-11-20T18:52:22.887Z,21.58
2022-11-20T18:54:50.334Z,22.02
2022-11-20T18:57:22.480Z,19.05
2022-11-20T18:59:49.632Z,16.58
2022-11-20T19:02:18.630Z,14.48
2022-11-20T19:04:45.762Z,15.13
2022-11-20T19:07:12.853Z,10.00
2022-11-20T19:09:45.022Z,10.32
2022-11-20T19:12:13.080Z,13.20
2022-11-20T19:14:40.173Z,15.57
2022-11-20T19:17:07.555Z,10.07
2022-11-20T19:19:35.332Z,14.93
2022-11-20T19:22:04.771Z,10.85
2022-11-20T19:24:32.215Z,8.95
2022-11-20T19:27:01.255Z,10.20
2022-11-20T19:29:29.074Z,11.85
2022-11-20T19:31:58.235Z,12.35
2022-11-20T19:34:26.160Z,11.93
2022-11-20T19:36:53.945Z,12.52
2022-11-20T19:39:20.818Z,14.77
2022-11-20T19:41:47.809Z,15.18
2022-11-20T19:44:15.913Z,13.20
2022-11-20T19:46:43.617Z,12.90
2022-11-20T19:49:12.725Z,13.65
2022-11-20T19:51:44.801Z,9.45
2022-11-20T19:54:11.864Z,7.60
2022-11-20T19:56:38.898Z,11.05
2022-11-20T19:59:06.059Z,12.82
2022-11-20T20:01:33.005Z,12.57
2022-11-20T20:04:02.709Z,55.13
2022-11-20T20:06:30.057Z,43.15
2022-11-20T20:08:57.012Z,42.53
2022-11-20T20:11:25.792Z,21.95
2022-11-20T20:13:53.604Z,19.00
2022-11-20T20:16:23.457Z,31.33
2022-11-20T20:18:55.271Z,36.80
2022-11-20T20:21:23.285Z,48.55
2022-11-20T20:23:52.143Z,55.63
2022-11-20T20:26:19.592Z,29.65
2022-11-20T20:28:46.633Z,98.97
2022-11-20T20:31:16.948Z,74.65
2022-11-20T20:33:44.775Z,71.63
2022-11-20T20:36:13.848Z,74.03
2022-11-20T20:38:42.515Z,23.42
2022-11-20T20:41:09.700Z,28.80
2022-11-20T20:43:57.195Z,33.50
2022-11-20T20:46:24.805Z,11.73
2022-11-20T20:48:54.769Z,10.55
2022-11-20T20:51:22.421Z,21.38
2022-11-20T20:53:49.591Z,20.45
2022-11-20T20:56:17.462Z,25.48
2022-11-20T20:58:44.531Z,16.30
2022-11-20T21:01:16.662Z,7.78
2022-11-20T21:03:43.564Z,16.63
2022-11-20T21:06:11.754Z,7.15
2022-11-20T21:08:40.652Z,6.07
2022-11-20T21:11:12.496Z,30.75
2022-11-20T21:13:40.563Z,107.45
2022-11-20T21:16:07.758Z,9.27
2022-11-20T21:18:35.015Z,75.00
2022-11-20T21:21:23.223Z,55.28
2022-11-20T21:23:51.381Z,19.67
2022-11-20T21:26:18.260Z,20.38
2022-11-20T21:28:45.115Z,15.07
2022-11-20T21:31:15.352Z,7.72
2022-11-20T21:33:46.477Z,12.00
2022-11-20T21:36:15.730Z,15.73
2022-11-20T21:38:42.802Z,12.25
2022-11-20T21:41:10.945Z,8.13
2022-11-20T21:43:37.981Z,10.25
2022-11-20T21:46:07.052Z,10.18
2022-11-20T21:48:35.602Z,9.27
2022-11-20T21:51:07.301Z,11.80
2022-11-20T21:53:34.820Z,8.25
2022-11-20T21:56:02.238Z,9.25
2022-11-20T21:58:29.093Z,5.35
2022-11-20T22:00:56.092Z,8.75
2022-11-20T22:03:23.216Z,8.10
2022-11-20T22:05:55.116Z,10.18
2022-11-20T22:08:22.711Z,10.48
2022-11-20T22:11:10.129Z,5.15
2022-11-20T22:13:55.822Z,5.00
2022-11-20T22:16:23.217Z,10.23
2022-11-20T22:18:51.753Z,10.75
2022-11-20T22:21:21.137Z,10.32
2022-11-20T22:23:48.557Z,10.50
2022-11-20T22:26:17.818Z,8.13
2022-11-20T22:28:48.792Z,12.23
2022-11-20T22:33:42.437Z,15.70
2022-11-20T22:36:11.791Z,12.80
2022-11-20T22:38:39.711Z,9.85
2022-11-20T22:41:11.087Z,15.38
2022-11-20T22:43:38.731Z,21.40
2022-11-20T22:46:09.382Z,22.85
2022-11-20T22:48:38.008Z,38.15
2022-11-20T22:51:10.072Z,28.92
2022-11-20T22:53:37.418Z,24.52
2022-11-20T22:56:06.770Z,7.78
2022-11-20T22:58:34.749Z,13.00
2022-11-20T23:01:17.670Z,10.60
2022-11-20T23:03:50.063Z,12.20
2022-11-20T23:06:19.416Z,10.38
2022-11-20T23:08:46.910Z,27.80
2022-11-20T23:11:20.112Z,24.38
2022-11-20T23:13:47.897Z,25.77
2022-11-20T23:16:17.302Z,27.05
2022-11-20T23:18:44.813Z,55.67
2022-11-20T23:21:15.855Z,19.73
2022-11-20T23:23:43.313Z,19.30
2022-11-20T23:26:13.135Z,9.60
2022-11-20T23:28:40.700Z,11.02
2022-11-20T23:31:08.446Z,11.85
2022-11-20T23:33:37.027Z,16.50
2022-11-20T23:36:04.805Z,13.05
2022-11-20T23:38:32.036Z,8.73
2022-11-20T23:40:58.837Z,9.15
2022-11-20T23:43:26.049Z,14.18
2022-11-20T23:45:57.561Z,12.07
2022-11-20T23:48:28.274Z,17.27
2022-11-20T23:50:55.715Z,15.32
2022-11-20T23:53:23.267Z,12.27
2022-11-20T23:55:52.737Z,14.68
2022-11-20T23:58:20.288Z,9.43
